OICS  Sanandaj Airport

Add Bookmark

Iran

Status IATA
Operational SDG
Latitude Longitude
35° 14' 45" N 47° 0' 33" E
35.245899 47.009201
Local (DST + 5) UTC (GMT + 4)
Nov 23, 2014 02:16 Nov 23, 2014 10:46
Sunrise-Sunset Local UTC
Begin Civil Twilight 06:36 03:06
Sunrise 07:03 03:33
Sunset 05:13 13:43
End Civil Twilight 05:40 14:10

Current Weather

METAR Observed VFR
OICS 231000Z 19010KT 9999 FEW035TCU SCT040 13/02 Q1014 Sun, Nov 23, 2014 @ 10:00 UTC
(46 Minutes ago)
Visual Flight Rules
Wind Visibility Clouds Conditions
190° at 10 knots (19 kph) 10 km or more
  • Few at 3,500' AGL
  • Scattered at 4,000' AGL
  • No significant weather
Temperatures Readings Precipitation
Current Temp 13°C (55°F)
Dewpoint 2°C (36°F)
Humidity 47%
Altimeter 29.94"Hg
Sea Level Pressure 1014mb
Field Elevation 4504.59'
None Recorded

Additional weather within a 185.2km radius of OICS

Map ICAO Location
OICC 100.9km S (172°)
OIHH 146.5km E (106°)
ORSU 157.2km W (283°)

24 Hour Weather History

Loading
-

24 Hour Weather Graphs

Loading
-

CheckWX.com is intended as a tool to help pilots better visualize weather data. It is not intended as a substitute for an official weather briefing obtained from a Flight Service Station. CheckWX.com does not meet the FAA requirements for an official pre-flight weather briefing. Therefore, it's important that pilots still call and obtain an official FSS pre-flight weather briefing.